Hannah Ray — WDE4972 — position and weather

sailwx.info

Track history (hours):
 
Tides and Currents Weather Stations Pressure Air Temp Water Temp Dewpoint Dewpoint Depression Visibility Wind Speed Wind Dir Waves Ship Positions

Hannah Ray

Owner: Offshore Oil Services, Inc., Clute, TX. More information available from US FCC via Universal Licensing System and Coast Guard Vessel Documentation Center.

Last reported at 2018-Feb-15 09:05 UTC. Time now 2018-Feb-20 17:29 UTC.
Position N 29°49' W 093°20'.

Length 40 m; draft 2 m.

Type: Passenger vessel. MMSI: 367360360.

Date/timePositionNaut miles runAvg speedWind from/ knotsBaromVisibWave heightAir tempDewpointWater temp
2018-Feb-15 09:05N 29°49' W 093°20'0 0.0
2018-Feb-15 08:46N 29°49' W 093°20'57 5.3
2018-Feb-14 22:02N 29°41' W 092°15'111.2
2018-Feb-14 21:59N 29°41' W 092°15'5 9.9
2018-Feb-14 21:31N 29°45' W 092°12'2 3.3
2018-Feb-14 21:00N 29°47' W 092°11'0 0.0
2018-Feb-14 20:31N 29°47' W 092°11'0 0.0
2018-Feb-14 20:00N 29°47' W 092°11'0 0.2
2018-Feb-14 19:31N 29°47' W 092°11'0 0.0
2018-Feb-14 19:00N 29°47' W 092°11'1 1.8
2018-Feb-14 18:31N 29°46' W 092°11'6 0.6
2018-Feb-14 08:57N 29°41' W 092°15'410.0
2018-Feb-14 08:30N 29°45' W 092°13'3 5.2
2018-Feb-14 08:00N 29°47' W 092°11'0 0.0
2018-Feb-14 07:30N 29°47' W 092°11'0 0.0
2018-Feb-14 07:00N 29°47' W 092°11'0 0.0
2018-Feb-14 06:30N 29°47' W 092°11'0 0.0
2018-Feb-14 06:00N 29°47' W 092°11'0 0.0
2018-Feb-14 05:30N 29°47' W 092°11'0 0.0
2018-Feb-14 05:00N 29°47' W 092°11'0 0.2
2018-Feb-14 04:30N 29°47' W 092°11'  
2018-Feb-07 21:33N 29°32' W 093°38'717.7
2018-Feb-07 21:09N 29°30' W 093°46'  
Track history (hours):
 
Tides and Currents Weather Stations Pressure Air Temp Water Temp Dewpoint Dewpoint Depression Visibility Wind Speed Wind Dir Waves Ship Positions

Hannah Ray

Owner: Offshore Oil Services, Inc., Clute, TX. More information available from US FCC via Universal Licensing System and Coast Guard Vessel Documentation Center.

Last reported at 2018-Feb-15 09:05 UTC. Time now 2018-Feb-20 17:29 UTC.
Position N 29°49' W 093°20'.

Length 40 m; draft 2 m.

Type: Passenger vessel. MMSI: 367360360.

Date/timePositionNaut miles runAvg speedWind from/ knotsBaromVisibWave heightAir tempDewpointWater temp
2018-Feb-15 09:05N 29°49' W 093°20'0 0.0
2018-Feb-15 08:46N 29°49' W 093°20'57 5.3
2018-Feb-14 22:02N 29°41' W 092°15'111.2
2018-Feb-14 21:59N 29°41' W 092°15'5 9.9
2018-Feb-14 21:31N 29°45' W 092°12'2 3.3
2018-Feb-14 21:00N 29°47' W 092°11'0 0.0
2018-Feb-14 20:31N 29°47' W 092°11'0 0.0
2018-Feb-14 20:00N 29°47' W 092°11'0 0.2
2018-Feb-14 19:31N 29°47' W 092°11'0 0.0
2018-Feb-14 19:00N 29°47' W 092°11'1 1.8
2018-Feb-14 18:31N 29°46' W 092°11'6 0.6
2018-Feb-14 08:57N 29°41' W 092°15'410.0
2018-Feb-14 08:30N 29°45' W 092°13'3 5.2
2018-Feb-14 08:00N 29°47' W 092°11'0 0.0
2018-Feb-14 07:30N 29°47' W 092°11'0 0.0
2018-Feb-14 07:00N 29°47' W 092°11'0 0.0
2018-Feb-14 06:30N 29°47' W 092°11'0 0.0
2018-Feb-14 06:00N 29°47' W 092°11'0 0.0
2018-Feb-14 05:30N 29°47' W 092°11'0 0.0
2018-Feb-14 05:00N 29°47' W 092°11'0 0.2
2018-Feb-14 04:30N 29°47' W 092°11'  
2018-Feb-07 21:33N 29°32' W 093°38'717.7
2018-Feb-07 21:09N 29°30' W 093°46'  

Dump ship's entire track history